地図

経路データ

SID SEASON NUMBER BASIN SUBBASIN NAME ISO_TIME NATURE LAT LON WMO_WIND WMO_PRES WMO_AGENCY TRACK_TYPE DIST2LAND LANDFALL IFLAG USA_AGENCY USA_ATCF_ID USA_LAT USA_LON USA_RECORD USA_STATUS USA_WIND USA_PRES USA_SSHS USA_R34_NE USA_R34_SE USA_R34_SW USA_R34_NW USA_R50_NE USA_R50_SE USA_R50_SW USA_R50_NW USA_R64_NE USA_R64_SE USA_R64_SW USA_R64_NW USA_POCI USA_ROCI USA_RMW USA_EYE TOKYO_LAT TOKYO_LON TOKYO_GRADE TOKYO_WIND TOKYO_PRES TOKYO_R50_DIR TOKYO_R50_LONG TOKYO_R50_SHORT TOKYO_R30_DIR TOKYO_R30_LONG TOKYO_R30_SHORT TOKYO_LAND CMA_LAT CMA_LON CMA_CAT CMA_WIND CMA_PRES HKO_LAT HKO_LON HKO_CAT HKO_WIND HKO_PRES NEWDELHI_LAT NEWDELHI_LON NEWDELHI_GRADE NEWDELHI_WIND NEWDELHI_PRES NEWDELHI_CI NEWDELHI_DP NEWDELHI_POCI REUNION_LAT REUNION_LON REUNION_TYPE REUNION_WIND REUNION_PRES REUNION_TNUM REUNION_CI REUNION_RMW REUNION_R34_NE REUNION_R34_SE REUNION_R34_SW REUNION_R34_NW REUNION_R50_NE REUNION_R50_SE REUNION_R50_SW REUNION_R50_NW REUNION_R64_NE REUNION_R64_SE REUNION_R64_SW REUNION_R64_NW BOM_LAT BOM_LON BOM_TYPE BOM_WIND BOM_PRES BOM_TNUM BOM_CI BOM_RMW BOM_R34_NE BOM_R34_SE BOM_R34_SW BOM_R34_NW BOM_R50_NE BOM_R50_SE BOM_R50_SW BOM_R50_NW BOM_R64_NE BOM_R64_SE BOM_R64_SW BOM_R64_NW BOM_ROCI BOM_POCI BOM_EYE BOM_POS_METHOD BOM_PRES_METHOD NADI_LAT NADI_LON NADI_CAT NADI_WIND NADI_PRES WELLINGTON_LAT WELLINGTON_LON WELLINGTON_WIND WELLINGTON_PRES DS824_LAT DS824_LON DS824_STAGE DS824_WIND DS824_PRES TD9636_LAT TD9636_LON TD9636_STAGE TD9636_WIND TD9636_PRES TD9635_LAT TD9635_LON TD9635_WIND TD9635_PRES TD9635_ROCI NEUMANN_LAT NEUMANN_LON NEUMANN_CLASS NEUMANN_WIND NEUMANN_PRES MLC_LAT MLC_LON MLC_CLASS MLC_WIND MLC_PRES USA_GUST BOM_GUST BOM_GUST_PER REUNION_GUST REUNION_GUST_PER USA_SEAHGT USA_SEARAD_NE USA_SEARAD_SE USA_SEARAD_SW USA_SEARAD_NW STORM_SPEED STORM_DIR
1906061S16149 1906 10 SP EA NOT_NAMED 1906-03-01 12:00:00 NR -15.6000 148.600 main 328 328 __________O___ -1 -15.6000 148.600 7 1 228
1906061S16149 1906 10 SP EA NOT_NAMED 1906-03-01 15:00:00 NR -15.6372 148.553 main 328 313 __________P___ -1 -15.6372 148.553 7 1 236
1906061S16149 1906 10 SP EA NOT_NAMED 1906-03-01 18:00:00 NR -15.6796 148.475 main 313 294 __________P___ -1 -15.6796 148.475 7 2 246
1906061S16149 1906 10 SP EA NOT_NAMED 1906-03-01 21:00:00 NR -15.7322 148.334 main 294 270 __________P___ -1 -15.7322 148.334 7 4 252
1906061S16149 1906 10 SP EA NOT_NAMED 1906-03-02 00:00:00 NR -15.8000 148.100 main 270 237 __________O___ -1 -15.8000 148.100 7 6 255
1906061S16149 1906 10 SP EA NOT_NAMED 1906-03-02 03:00:00 NR -15.8875 147.751 main 237 186 __________P___ -1 -15.8875 147.751 7 8 255
1906061S16149 1906 10 SP EA NOT_NAMED 1906-03-02 06:00:00 NR -15.9978 147.312 main 186 138 __________P___ -1 -15.9978 147.312 7 9 255
1906061S16149 1906 10 SP EA NOT_NAMED 1906-03-02 09:00:00 NR -16.1342 146.817 main 138 84 __________P___ -1 -16.1342 146.817 7 10 253
1906061S16149 1906 10 SP EA NOT_NAMED 1906-03-02 12:00:00 NR -16.3000 146.300 main 84 30 __________O___ -1 -16.3000 146.300 7 11 249
1906061S16149 1906 10 SP EA NOT_NAMED 1906-03-02 15:00:00 NR -16.5130 145.762 main 30 0 __________P___ -1 -16.5130 145.762 7 11 247
1906061S16149 1906 10 SP EA NOT_NAMED 1906-03-02 18:00:00 NR -16.7508 145.219 main 0 0 __________P___ -1 -16.7508 145.219 7 11 245
1906061S16149 1906 10 SP EA NOT_NAMED 1906-03-02 21:00:00 NR -16.9881 144.715 main 0 0 __________P___ -1 -16.9881 144.715 7 10 243
1906061S16149 1906 10 SP EA NOT_NAMED 1906-03-03 00:00:00 NR -17.2000 144.300 main 0 0 __________O___ -1 -17.2000 144.300 7 7 241
1906061S16149 1906 10 SP EA NOT_NAMED 1906-03-03 03:00:00 NR -17.3529 144.039 main 0 0 __________P___ -1 -17.3529 144.039 7 5 236
1906061S16149 1906 10 SP EA NOT_NAMED 1906-03-03 06:00:00 NR -17.4790 143.867 main 0 0 __________P___ -1 -17.4790 143.867 7 4 230
1906061S16149 1906 10 SP EA NOT_NAMED 1906-03-03 09:00:00 NR -17.5906 143.736 main 0 0 __________P___ -1 -17.5906 143.736 7 3 229
1906061S16149 1906 10 SP EA NOT_NAMED 1906-03-03 12:00:00 NR -17.7000 143.600 main 0 0 __________O___ -1 -17.7000 143.600 7 4 237
1906061S16149 1906 10 SP EA NOT_NAMED 1906-03-03 15:00:00 NR -17.8170 143.377 main 0 0 __________P___ -1 -17.8170 143.377 7 5 242
1906061S16149 1906 10 SP EA NOT_NAMED 1906-03-03 18:00:00 NR -17.9351 143.142 main 0 0 __________P___ -1 -17.9351 143.142 7 5 241
1906061S16149 1906 10 SP EA NOT_NAMED 1906-03-03 21:00:00 NR -18.0607 142.912 main 0 0 __________P___ -1 -18.0607 142.912 7 5 238
1906061S16149 1906 10 SP EA NOT_NAMED 1906-03-04 00:00:00 NR -18.2000 142.700 main 0 0 __________O___ -1 -18.2000 142.700 7 5 231
1906061S16149 1906 10 SP EA NOT_NAMED 1906-03-04 03:00:00 NR -18.3605 142.516 main 0 0 __________P___ -1 -18.3605 142.516 7 5 225
1906061S16149 1906 10 SP EA NOT_NAMED 1906-03-04 06:00:00 NR -18.5349 142.355 main 0 0 __________P___ -1 -18.5349 142.355 7 5 219
1906061S16149 1906 10 SP EA NOT_NAMED 1906-03-04 09:00:00 NR -18.7168 142.216 main 0 0 __________P___ -1 -18.7168 142.216 7 4 213
1906061S16149 1906 10 SP EA NOT_NAMED 1906-03-04 12:00:00 NR -18.9000 142.100 main 0 0 __________O___ -1 -18.9000 142.100 7 4 209
1906061S16149 1906 10 SP EA NOT_NAMED 1906-03-04 15:00:00 NR -19.0627 142.011 main 0 0 __________P___ -1 -19.0627 142.011 7 4 204
1906061S16149 1906 10 SP EA NOT_NAMED 1906-03-04 18:00:00 NR -19.2274 141.942 main 0 0 __________P___ -1 -19.2274 141.942 7 4 200
1906061S16149 1906 10 SP EA NOT_NAMED 1906-03-04 21:00:00 NR -19.4033 141.877 main 0 0 __________P___ -1 -19.4033 141.877 7 4 200
1906061S16149 1906 10 SP EA NOT_NAMED 1906-03-05 00:00:00 NR -19.6000 141.800 main 0 0 __________O___ -1 -19.6000 141.800 7 5 202
1906061S16149 1906 10 SP EA NOT_NAMED 1906-03-05 03:00:00 NR -19.8244 141.697 main 0 0 __________P___ -1 -19.8244 141.697 7 5 204
1906061S16149 1906 10 SP EA NOT_NAMED 1906-03-05 06:00:00 NR -20.0700 141.580 main 0 0 __________P___ -1 -20.0700 141.580 7 6 205
1906061S16149 1906 10 SP EA NOT_NAMED 1906-03-05 09:00:00 NR -20.3306 141.447 main 0 0 __________P___ -1 -20.3306 141.447 7 6 206
1906061S16149 1906 10 SP EA NOT_NAMED 1906-03-05 12:00:00 NR -20.6000 141.300 main 0 0 __________O___ -1 -20.6000 141.300 7 6 208
1906061S16149 1906 10 SP EA NOT_NAMED 1906-03-05 15:00:00 NR -20.8729 141.138 main 0 0 __________P___ -1 -20.8729 141.138 7 6 210
1906061S16149 1906 10 SP EA NOT_NAMED 1906-03-05 18:00:00 NR -21.1477 140.966 main 0 0 __________P___ -1 -21.1477 140.966 7 6 211
1906061S16149 1906 10 SP EA NOT_NAMED 1906-03-05 21:00:00 NR -21.4236 140.785 main 0 0 __________P___ -1 -21.4236 140.785 7 7 212
1906061S16149 1906 10 SP EA NOT_NAMED 1906-03-06 00:00:00 NR -21.7000 140.600 main 0 __________O___ -1 -21.7000 140.600 7 7 212

デジタル台風データ・検索

IBTrACS Databaseについて

本データベースは、米国NOAAが公開する1842年以降の世界の熱帯低気圧のベストトラックデータアーカイブInternational Best Track Archive for Climate Stewardship (IBTrACS)を、ウェブで閲覧しやすい形式に変換したものです。

最終更新日:2021-10-08